sensor_id;sensor_type;location;lat;lon;timestamp;P1;durP1;ratioP1;P2;durP2;ratioP2
67712;SDS011;67640;55.784;49.138;2024-01-30T00:04:35;21.20;;;6.45;;
67712;SDS011;67640;55.784;49.138;2024-01-30T00:09:54;23.25;;;7.42;;
67712;SDS011;67640;55.784;49.138;2024-01-30T00:15:24;21.15;;;7.03;;
67712;SDS011;67640;55.784;49.138;2024-01-30T00:20:29;25.52;;;8.13;;
67712;SDS011;67640;55.784;49.138;2024-01-30T00:25:44;23.92;;;8.43;;
67712;SDS011;67640;55.784;49.138;2024-01-30T00:31:03;22.43;;;7.70;;
67712;SDS011;67640;55.784;49.138;2024-01-30T00:36:22;22.17;;;6.75;;
67712;SDS011;67640;55.784;49.138;2024-01-30T00:41:41;21.48;;;7.22;;
67712;SDS011;67640;55.784;49.138;2024-01-30T00:47:02;21.30;;;7.70;;
67712;SDS011;67640;55.784;49.138;2024-01-30T00:52:08;21.85;;;7.47;;
67712;SDS011;67640;55.784;49.138;2024-01-30T00:57:29;26.45;;;7.15;;
67712;SDS011;67640;55.784;49.138;2024-01-30T01:02:49;16.62;;;5.50;;
67712;SDS011;67640;55.784;49.138;2024-01-30T01:07:54;20.37;;;6.83;;
67712;SDS011;67640;55.784;49.138;2024-01-30T01:13:00;22.15;;;7.03;;
67712;SDS011;67640;55.784;49.138;2024-01-30T01:18:19;20.57;;;6.73;;
67712;SDS011;67640;55.784;49.138;2024-01-30T01:23:38;20.68;;;7.17;;
67712;SDS011;67640;55.784;49.138;2024-01-30T01:28:57;17.07;;;6.50;;
67712;SDS011;67640;55.784;49.138;2024-01-30T01:34:16;20.43;;;6.37;;
67712;SDS011;67640;55.784;49.138;2024-01-30T01:39:22;19.75;;;6.67;;
67712;SDS011;67640;55.784;49.138;2024-01-30T01:44:27;18.67;;;6.80;;
67712;SDS011;67640;55.784;49.138;2024-01-30T01:49:46;19.05;;;7.12;;
67712;SDS011;67640;55.784;49.138;2024-01-30T01:55:06;17.15;;;6.12;;
67712;SDS011;67640;55.784;49.138;2024-01-30T02:00:26;13.98;;;5.17;;
67712;SDS011;67640;55.784;49.138;2024-01-30T02:05:32;20.08;;;6.92;;
67712;SDS011;67640;55.784;49.138;2024-01-30T02:10:37;18.33;;;6.03;;
67712;SDS011;67640;55.784;49.138;2024-01-30T02:21:35;14.90;;;6.05;;
67712;SDS011;67640;55.784;49.138;2024-01-30T02:26:54;16.17;;;6.33;;
67712;SDS011;67640;55.784;49.138;2024-01-30T02:31:59;16.85;;;5.67;;
67712;SDS011;67640;55.784;49.138;2024-01-30T02:37:05;19.27;;;6.90;;
67712;SDS011;67640;55.784;49.138;2024-01-30T02:42:24;18.42;;;6.33;;
67712;SDS011;67640;55.784;49.138;2024-01-30T02:47:43;21.02;;;7.03;;
67712;SDS011;67640;55.784;49.138;2024-01-30T02:53:02;16.90;;;6.45;;
67712;SDS011;67640;55.784;49.138;2024-01-30T02:58:07;21.10;;;7.05;;
67712;SDS011;67640;55.784;49.138;2024-01-30T03:03:12;19.93;;;7.30;;
67712;SDS011;67640;55.784;49.138;2024-01-30T03:08:31;23.32;;;7.35;;
67712;SDS011;67640;55.784;49.138;2024-01-30T03:13:50;20.92;;;7.05;;
67712;SDS011;67640;55.784;49.138;2024-01-30T03:19:26;21.23;;;7.30;;
67712;SDS011;67640;55.784;49.138;2024-01-30T03:24:31;20.02;;;7.30;;
67712;SDS011;67640;55.784;49.138;2024-01-30T03:29:50;18.50;;;7.03;;
67712;SDS011;67640;55.784;49.138;2024-01-30T03:35:09;22.87;;;7.33;;
67712;SDS011;67640;55.784;49.138;2024-01-30T03:40:14;22.45;;;7.15;;
67712;SDS011;67640;55.784;49.138;2024-01-30T03:45:33;20.70;;;7.20;;
67712;SDS011;67640;55.784;49.138;2024-01-30T03:50:37;22.45;;;7.35;;
67712;SDS011;67640;55.784;49.138;2024-01-30T03:56:09;19.95;;;7.10;;
67712;SDS011;67640;55.784;49.138;2024-01-30T04:01:14;20.25;;;7.08;;
67712;SDS011;67640;55.784;49.138;2024-01-30T04:06:25;20.10;;;7.45;;
67712;SDS011;67640;55.784;49.138;2024-01-30T04:11:45;23.00;;;7.33;;
67712;SDS011;67640;55.784;49.138;2024-01-30T04:17:04;22.23;;;7.10;;
67712;SDS011;67640;55.784;49.138;2024-01-30T04:22:23;18.00;;;6.53;;
67712;SDS011;67640;55.784;49.138;2024-01-30T04:27:37;20.77;;;7.25;;
67712;SDS011;67640;55.784;49.138;2024-01-30T04:32:43;22.30;;;6.95;;
67712;SDS011;67640;55.784;49.138;2024-01-30T04:38:02;20.43;;;8.10;;
67712;SDS011;67640;55.784;49.138;2024-01-30T04:43:21;18.60;;;7.33;;
67712;SDS011;67640;55.784;49.138;2024-01-30T04:48:42;19.70;;;7.23;;
67712;SDS011;67640;55.784;49.138;2024-01-30T04:53:47;21.27;;;7.00;;
67712;SDS011;67640;55.784;49.138;2024-01-30T04:58:53;21.97;;;7.60;;
67712;SDS011;67640;55.784;49.138;2024-01-30T05:03:58;20.97;;;7.22;;
67712;SDS011;67640;55.784;49.138;2024-01-30T05:09:18;19.12;;;6.53;;
67712;SDS011;67640;55.784;49.138;2024-01-30T05:14:23;21.27;;;8.20;;
67712;SDS011;67640;55.784;49.138;2024-01-30T05:19:43;21.48;;;7.58;;
67712;SDS011;67640;55.784;49.138;2024-01-30T05:25:02;24.50;;;7.58;;
67712;SDS011;67640;55.784;49.138;2024-01-30T05:30:21;21.60;;;7.37;;
67712;SDS011;67640;55.784;49.138;2024-01-30T05:35:40;26.57;;;8.45;;
67712;SDS011;67640;55.784;49.138;2024-01-30T05:40:58;22.52;;;7.80;;
67712;SDS011;67640;55.784;49.138;2024-01-30T05:46:03;23.07;;;7.20;;
67712;SDS011;67640;55.784;49.138;2024-01-30T05:51:18;21.15;;;8.00;;
67712;SDS011;67640;55.784;49.138;2024-01-30T05:56:24;18.98;;;6.97;;
67712;SDS011;67640;55.784;49.138;2024-01-30T06:01:46;20.07;;;7.10;;
67712;SDS011;67640;55.784;49.138;2024-01-30T06:07:05;17.48;;;6.22;;
67712;SDS011;67640;55.784;49.138;2024-01-30T06:12:24;20.45;;;7.85;;
67712;SDS011;67640;55.784;49.138;2024-01-30T06:17:29;20.47;;;7.60;;
67712;SDS011;67640;55.784;49.138;2024-01-30T06:22:48;25.15;;;8.53;;
67712;SDS011;67640;55.784;49.138;2024-01-30T06:28:07;21.97;;;6.67;;
67712;SDS011;67640;55.784;49.138;2024-01-30T06:33:26;21.17;;;6.67;;
67712;SDS011;67640;55.784;49.138;2024-01-30T06:38:45;26.73;;;8.95;;
67712;SDS011;67640;55.784;49.138;2024-01-30T06:43:50;28.77;;;9.60;;
67712;SDS011;67640;55.784;49.138;2024-01-30T06:48:55;30.45;;;9.30;;
67712;SDS011;67640;55.784;49.138;2024-01-30T06:54:15;27.95;;;8.90;;
67712;SDS011;67640;55.784;49.138;2024-01-30T06:59:34;29.98;;;9.00;;
67712;SDS011;67640;55.784;49.138;2024-01-30T07:04:59;27.67;;;8.93;;
67712;SDS011;67640;55.784;49.138;2024-01-30T07:10:05;25.15;;;8.73;;
67712;SDS011;67640;55.784;49.138;2024-01-30T07:15:16;28.03;;;9.23;;
67712;SDS011;67640;55.784;49.138;2024-01-30T07:20:35;27.07;;;8.85;;
67712;SDS011;67640;55.784;49.138;2024-01-30T07:25:54;29.13;;;9.60;;
67712;SDS011;67640;55.784;49.138;2024-01-30T07:31:00;28.80;;;9.50;;
67712;SDS011;67640;55.784;49.138;2024-01-30T07:36:19;26.57;;;9.05;;
67712;SDS011;67640;55.784;49.138;2024-01-30T07:41:24;29.67;;;8.73;;
67712;SDS011;67640;55.784;49.138;2024-01-30T07:46:42;25.20;;;8.95;;
67712;SDS011;67640;55.784;49.138;2024-01-30T07:51:47;27.15;;;9.43;;
67712;SDS011;67640;55.784;49.138;2024-01-30T07:57:07;29.70;;;9.53;;
67712;SDS011;67640;55.784;49.138;2024-01-30T08:02:26;26.65;;;9.60;;
67712;SDS011;67640;55.784;49.138;2024-01-30T08:07:44;27.37;;;8.73;;
67712;SDS011;67640;55.784;49.138;2024-01-30T08:12:49;28.20;;;9.93;;
67712;SDS011;67640;55.784;49.138;2024-01-30T08:18:08;28.40;;;9.60;;
67712;SDS011;67640;55.784;49.138;2024-01-30T08:23:27;24.85;;;8.95;;
67712;SDS011;67640;55.784;49.138;2024-01-30T08:28:46;33.13;;;9.97;;
67712;SDS011;67640;55.784;49.138;2024-01-30T08:34:05;28.20;;;8.95;;
67712;SDS011;67640;55.784;49.138;2024-01-30T08:39:23;24.52;;;8.55;;
67712;SDS011;67640;55.784;49.138;2024-01-30T08:44:28;23.90;;;8.63;;
67712;SDS011;67640;55.784;49.138;2024-01-30T08:49:35;25.15;;;9.33;;
67712;SDS011;67640;55.784;49.138;2024-01-30T08:54:40;27.67;;;9.60;;
67712;SDS011;67640;55.784;49.138;2024-01-30T08:59:59;25.50;;;9.38;;
67712;SDS011;67640;55.784;49.138;2024-01-30T09:05:18;22.37;;;7.83;;
67712;SDS011;67640;55.784;49.138;2024-01-30T09:10:54;25.50;;;8.63;;
67712;SDS011;67640;55.784;49.138;2024-01-30T09:16:00;23.67;;;9.10;;
67712;SDS011;67640;55.784;49.138;2024-01-30T09:21:19;26.02;;;10.23;;
67712;SDS011;67640;55.784;49.138;2024-01-30T09:26:24;24.03;;;8.67;;
67712;SDS011;67640;55.784;49.138;2024-01-30T09:31:28;25.37;;;10.13;;
67712;SDS011;67640;55.784;49.138;2024-01-30T09:36:46;30.12;;;9.88;;
67712;SDS011;67640;55.784;49.138;2024-01-30T09:47:11;22.83;;;9.03;;
67712;SDS011;67640;55.784;49.138;2024-01-30T09:52:16;28.30;;;10.25;;
67712;SDS011;67640;55.784;49.138;2024-01-30T09:57:36;27.20;;;8.88;;
67712;SDS011;67640;55.784;49.138;2024-01-30T10:02:53;22.02;;;8.53;;
67712;SDS011;67640;55.784;49.138;2024-01-30T10:07:58;23.05;;;8.78;;
67712;SDS011;67640;55.784;49.138;2024-01-30T10:13:16;19.90;;;7.65;;
67712;SDS011;67640;55.784;49.138;2024-01-30T10:18:22;22.05;;;7.90;;
67712;SDS011;67640;55.784;49.138;2024-01-30T10:23:28;23.27;;;8.57;;
67712;SDS011;67640;55.784;49.138;2024-01-30T10:28:47;22.82;;;8.50;;
67712;SDS011;67640;55.784;49.138;2024-01-30T10:34:07;23.87;;;8.20;;
67712;SDS011;67640;55.784;49.138;2024-01-30T10:39:28;21.30;;;7.75;;
67712;SDS011;67640;55.784;49.138;2024-01-30T10:50:11;22.03;;;7.83;;
67712;SDS011;67640;55.784;49.138;2024-01-30T10:55:30;29.40;;;8.88;;
67712;SDS011;67640;55.784;49.138;2024-01-30T11:00:50;24.40;;;8.43;;
67712;SDS011;67640;55.784;49.138;2024-01-30T11:06:10;19.70;;;7.27;;
67712;SDS011;67640;55.784;49.138;2024-01-30T11:11:17;17.10;;;6.92;;
67712;SDS011;67640;55.784;49.138;2024-01-30T11:16:22;19.92;;;7.25;;
67712;SDS011;67640;55.784;49.138;2024-01-30T11:21:42;15.05;;;6.08;;
67712;SDS011;67640;55.784;49.138;2024-01-30T11:27:01;18.92;;;6.50;;
67712;SDS011;67640;55.784;49.138;2024-01-30T11:37:46;18.50;;;6.97;;
67712;SDS011;67640;55.784;49.138;2024-01-30T11:43:05;22.65;;;7.15;;
67712;SDS011;67640;55.784;49.138;2024-01-30T11:48:11;19.93;;;7.30;;
67712;SDS011;67640;55.784;49.138;2024-01-30T11:53:23;17.80;;;6.83;;
67712;SDS011;67640;55.784;49.138;2024-01-30T11:58:42;18.00;;;7.03;;
67712;SDS011;67640;55.784;49.138;2024-01-30T12:04:02;18.43;;;6.43;;
67712;SDS011;67640;55.784;49.138;2024-01-30T12:09:21;15.58;;;6.85;;
67712;SDS011;67640;55.784;49.138;2024-01-30T12:14:40;17.73;;;6.70;;
67712;SDS011;67640;55.784;49.138;2024-01-30T12:25:25;16.37;;;6.85;;
67712;SDS011;67640;55.784;49.138;2024-01-30T12:30:44;18.67;;;6.73;;
67712;SDS011;67640;55.784;49.138;2024-01-30T12:35:49;17.70;;;6.97;;
67712;SDS011;67640;55.784;49.138;2024-01-30T12:41:08;19.40;;;7.27;;
67712;SDS011;67640;55.784;49.138;2024-01-30T12:46:28;20.20;;;7.62;;
67712;SDS011;67640;55.784;49.138;2024-01-30T12:51:47;17.80;;;7.28;;
67712;SDS011;67640;55.784;49.138;2024-01-30T12:56:53;25.97;;;8.07;;
67712;SDS011;67640;55.784;49.138;2024-01-30T13:01:59;17.98;;;7.37;;
67712;SDS011;67640;55.784;49.138;2024-01-30T13:07:18;17.95;;;7.30;;
67712;SDS011;67640;55.784;49.138;2024-01-30T13:12:23;19.77;;;7.20;;
67712;SDS011;67640;55.784;49.138;2024-01-30T13:17:43;17.30;;;6.55;;
67712;SDS011;67640;55.784;49.138;2024-01-30T13:22:48;16.75;;;6.10;;
67712;SDS011;67640;55.784;49.138;2024-01-30T13:28:07;19.42;;;6.90;;
67712;SDS011;67640;55.784;49.138;2024-01-30T13:33:27;22.00;;;7.22;;
67712;SDS011;67640;55.784;49.138;2024-01-30T13:38:32;17.50;;;5.93;;
67712;SDS011;67640;55.784;49.138;2024-01-30T13:43:51;22.58;;;6.72;;
67712;SDS011;67640;55.784;49.138;2024-01-30T13:48:56;18.27;;;5.95;;
67712;SDS011;67640;55.784;49.138;2024-01-30T13:54:21;17.25;;;5.85;;
67712;SDS011;67640;55.784;49.138;2024-01-30T13:59:26;16.77;;;7.08;;
67712;SDS011;67640;55.784;49.138;2024-01-30T14:04:46;16.83;;;6.77;;
67712;SDS011;67640;55.784;49.138;2024-01-30T14:10:05;13.72;;;5.90;;
67712;SDS011;67640;55.784;49.138;2024-01-30T14:15:24;17.48;;;6.33;;
67712;SDS011;67640;55.784;49.138;2024-01-30T14:20:29;16.60;;;6.35;;
67712;SDS011;67640;55.784;49.138;2024-01-30T14:25:35;15.65;;;5.53;;
67712;SDS011;67640;55.784;49.138;2024-01-30T14:31:08;17.95;;;5.60;;
67712;SDS011;67640;55.784;49.138;2024-01-30T14:36:33;13.77;;;4.53;;
67712;SDS011;67640;55.784;49.138;2024-01-30T14:41:38;9.78;;;4.00;;
67712;SDS011;67640;55.784;49.138;2024-01-30T14:46:57;11.30;;;4.00;;
67712;SDS011;67640;55.784;49.138;2024-01-30T14:52:17;11.70;;;4.17;;
67712;SDS011;67640;55.784;49.138;2024-01-30T14:57:38;7.37;;;2.92;;
67712;SDS011;67640;55.784;49.138;2024-01-30T15:02:43;8.07;;;2.60;;
67712;SDS011;67640;55.784;49.138;2024-01-30T15:07:48;7.10;;;2.30;;
67712;SDS011;67640;55.784;49.138;2024-01-30T15:13:09;9.13;;;2.77;;
67712;SDS011;67640;55.784;49.138;2024-01-30T15:18:14;8.73;;;2.33;;
67712;SDS011;67640;55.784;49.138;2024-01-30T15:23:35;6.40;;;2.23;;
67712;SDS011;67640;55.784;49.138;2024-01-30T15:28:40;6.60;;;2.22;;
67712;SDS011;67640;55.784;49.138;2024-01-30T15:33:46;6.63;;;2.37;;
67712;SDS011;67640;55.784;49.138;2024-01-30T15:39:05;5.87;;;2.47;;
67712;SDS011;67640;55.784;49.138;2024-01-30T15:44:25;6.72;;;2.40;;
67712;SDS011;67640;55.784;49.138;2024-01-30T15:49:44;6.50;;;2.37;;
67712;SDS011;67640;55.784;49.138;2024-01-30T15:55:04;4.83;;;1.98;;
67712;SDS011;67640;55.784;49.138;2024-01-30T16:00:14;6.43;;;1.80;;
67712;SDS011;67640;55.784;49.138;2024-01-30T16:05:34;9.43;;;2.60;;
67712;SDS011;67640;55.784;49.138;2024-01-30T16:10:40;7.95;;;2.35;;
67712;SDS011;67640;55.784;49.138;2024-01-30T16:15:59;6.85;;;2.10;;
67712;SDS011;67640;55.784;49.138;2024-01-30T16:21:18;6.62;;;2.40;;
67712;SDS011;67640;55.784;49.138;2024-01-30T16:26:37;7.20;;;2.80;;
67712;SDS011;67640;55.784;49.138;2024-01-30T16:31:42;9.10;;;2.90;;
67712;SDS011;67640;55.784;49.138;2024-01-30T16:37:05;6.03;;;2.25;;
67712;SDS011;67640;55.784;49.138;2024-01-30T16:42:10;5.97;;;2.30;;
67712;SDS011;67640;55.784;49.138;2024-01-30T16:47:15;11.20;;;2.83;;
67712;SDS011;67640;55.784;49.138;2024-01-30T16:52:20;6.00;;;2.70;;
67712;SDS011;67640;55.784;49.138;2024-01-30T16:57:41;10.97;;;2.83;;
67712;SDS011;67640;55.784;49.138;2024-01-30T17:03:00;7.80;;;2.50;;
67712;SDS011;67640;55.784;49.138;2024-01-30T17:08:05;11.53;;;2.55;;
67712;SDS011;67640;55.784;49.138;2024-01-30T17:13:24;8.43;;;2.00;;
67712;SDS011;67640;55.784;49.138;2024-01-30T17:24:08;5.45;;;2.12;;
67712;SDS011;67640;55.784;49.138;2024-01-30T17:29:14;5.30;;;1.80;;
67712;SDS011;67640;55.784;49.138;2024-01-30T17:34:43;6.85;;;2.30;;
67712;SDS011;67640;55.784;49.138;2024-01-30T17:40:06;8.50;;;2.80;;
67712;SDS011;67640;55.784;49.138;2024-01-30T17:45:25;6.50;;;2.40;;
67712;SDS011;67640;55.784;49.138;2024-01-30T17:50:30;10.25;;;2.65;;
67712;SDS011;67640;55.784;49.138;2024-01-30T17:55:49;8.07;;;2.00;;
67712;SDS011;67640;55.784;49.138;2024-01-30T18:00:55;10.18;;;2.65;;
67712;SDS011;67640;55.784;49.138;2024-01-30T18:06:14;8.50;;;2.77;;
67712;SDS011;67640;55.784;49.138;2024-01-30T18:11:33;7.47;;;2.50;;
67712;SDS011;67640;55.784;49.138;2024-01-30T18:16:52;8.98;;;3.08;;
67712;SDS011;67640;55.784;49.138;2024-01-30T18:21:57;11.87;;;2.70;;
67712;SDS011;67640;55.784;49.138;2024-01-30T18:27:02;8.48;;;2.70;;
67712;SDS011;67640;55.784;49.138;2024-01-30T18:32:21;10.90;;;2.80;;
67712;SDS011;67640;55.784;49.138;2024-01-30T18:37:39;12.37;;;2.53;;
67712;SDS011;67640;55.784;49.138;2024-01-30T18:42:44;7.97;;;2.30;;
67712;SDS011;67640;55.784;49.138;2024-01-30T18:47:50;9.58;;;2.90;;
67712;SDS011;67640;55.784;49.138;2024-01-30T18:53:10;9.10;;;2.55;;
67712;SDS011;67640;55.784;49.138;2024-01-30T18:58:29;6.20;;;2.00;;
67712;SDS011;67640;55.784;49.138;2024-01-30T19:03:55;8.20;;;2.70;;
67712;SDS011;67640;55.784;49.138;2024-01-30T19:09:00;9.60;;;2.50;;
67712;SDS011;67640;55.784;49.138;2024-01-30T19:14:19;6.20;;;2.35;;
67712;SDS011;67640;55.784;49.138;2024-01-30T19:19:49;8.10;;;2.27;;
67712;SDS011;67640;55.784;49.138;2024-01-30T19:24:54;10.43;;;2.97;;
67712;SDS011;67640;55.784;49.138;2024-01-30T19:30:14;9.38;;;2.70;;
67712;SDS011;67640;55.784;49.138;2024-01-30T19:35:19;7.05;;;1.92;;
67712;SDS011;67640;55.784;49.138;2024-01-30T19:40:38;12.20;;;3.20;;
67712;SDS011;67640;55.784;49.138;2024-01-30T19:46:16;7.22;;;2.62;;
67712;SDS011;67640;55.784;49.138;2024-01-30T19:51:47;8.70;;;2.70;;
67712;SDS011;67640;55.784;49.138;2024-01-30T19:56:52;7.17;;;2.00;;
67712;SDS011;67640;55.784;49.138;2024-01-30T20:01:58;10.03;;;2.33;;
67712;SDS011;67640;55.784;49.138;2024-01-30T20:07:17;11.77;;;2.80;;
67712;SDS011;67640;55.784;49.138;2024-01-30T20:12:36;8.23;;;2.55;;
67712;SDS011;67640;55.784;49.138;2024-01-30T20:17:54;9.43;;;2.00;;
67712;SDS011;67640;55.784;49.138;2024-01-30T20:23:00;9.68;;;2.77;;
67712;SDS011;67640;55.784;49.138;2024-01-30T20:28:19;11.60;;;2.35;;
67712;SDS011;67640;55.784;49.138;2024-01-30T20:33:24;9.33;;;2.40;;
67712;SDS011;67640;55.784;49.138;2024-01-30T20:38:43;8.63;;;2.10;;
67712;SDS011;67640;55.784;49.138;2024-01-30T20:44:02;6.15;;;2.00;;
67712;SDS011;67640;55.784;49.138;2024-01-30T20:54:45;7.70;;;1.90;;
67712;SDS011;67640;55.784;49.138;2024-01-30T20:59:50;5.55;;;1.47;;
67712;SDS011;67640;55.784;49.138;2024-01-30T21:05:09;8.63;;;2.37;;
67712;SDS011;67640;55.784;49.138;2024-01-30T21:10:28;9.27;;;2.27;;
67712;SDS011;67640;55.784;49.138;2024-01-30T21:15:47;8.45;;;2.27;;
67712;SDS011;67640;55.784;49.138;2024-01-30T21:21:06;7.47;;;2.33;;
67712;SDS011;67640;55.784;49.138;2024-01-30T21:26:12;7.58;;;2.20;;
67712;SDS011;67640;55.784;49.138;2024-01-30T21:31:49;8.78;;;2.12;;
67712;SDS011;67640;55.784;49.138;2024-01-30T21:36:55;6.55;;;1.70;;
67712;SDS011;67640;55.784;49.138;2024-01-30T21:42:00;7.72;;;1.80;;
67712;SDS011;67640;55.784;49.138;2024-01-30T21:47:05;8.25;;;1.82;;
67712;SDS011;67640;55.784;49.138;2024-01-30T21:52:24;9.63;;;2.10;;
67712;SDS011;67640;55.784;49.138;2024-01-30T21:57:43;8.63;;;2.17;;
67712;SDS011;67640;55.784;49.138;2024-01-30T22:03:01;7.10;;;1.70;;
67712;SDS011;67640;55.784;49.138;2024-01-30T22:08:06;6.77;;;1.77;;
67712;SDS011;67640;55.784;49.138;2024-01-30T22:13:25;10.95;;;1.98;;
67712;SDS011;67640;55.784;49.138;2024-01-30T22:18:30;8.15;;;1.90;;
67712;SDS011;67640;55.784;49.138;2024-01-30T22:23:49;7.37;;;2.00;;
67712;SDS011;67640;55.784;49.138;2024-01-30T22:29:09;5.15;;;1.50;;
67712;SDS011;67640;55.784;49.138;2024-01-30T22:34:28;6.03;;;1.73;;
67712;SDS011;67640;55.784;49.138;2024-01-30T22:39:33;11.22;;;2.27;;
67712;SDS011;67640;55.784;49.138;2024-01-30T22:44:38;11.08;;;2.83;;
67712;SDS011;67640;55.784;49.138;2024-01-30T22:49:57;11.07;;;2.33;;
67712;SDS011;67640;55.784;49.138;2024-01-30T22:55:16;8.85;;;2.62;;
67712;SDS011;67640;55.784;49.138;2024-01-30T23:00:36;9.60;;;2.77;;
67712;SDS011;67640;55.784;49.138;2024-01-30T23:05:41;9.88;;;2.62;;
67712;SDS011;67640;55.784;49.138;2024-01-30T23:10:46;11.30;;;2.90;;
67712;SDS011;67640;55.784;49.138;2024-01-30T23:16:04;8.75;;;2.40;;
67712;SDS011;67640;55.784;49.138;2024-01-30T23:21:09;15.30;;;2.58;;
67712;SDS011;67640;55.784;49.138;2024-01-30T23:26:28;10.72;;;2.25;;
67712;SDS011;67640;55.784;49.138;2024-01-30T23:31:47;11.77;;;2.33;;
67712;SDS011;67640;55.784;49.138;2024-01-30T23:37:06;10.80;;;2.35;;
67712;SDS011;67640;55.784;49.138;2024-01-30T23:42:25;7.20;;;2.08;;
67712;SDS011;67640;55.784;49.138;2024-01-30T23:47:30;6.83;;;1.67;;
67712;SDS011;67640;55.784;49.138;2024-01-30T23:52:49;7.28;;;2.08;;
67712;SDS011;67640;55.784;49.138;2024-01-30T23:57:54;8.27;;;2.17;;
